Time;durP1;ratioP1;P1;durP2;ratioP2;P2;SDS_P1;SDS_P2;PMS_P1;PMS_P2;Temp;Humidity;BMP_temperature;BMP_pressure;BME280_temperature;BME280_humidity;BME280_pressure;Samples;Min_cycle;Max_cycle;Signal;HPM_P1;HPM_P2
2022/05/04 00:01:02;;;;;;;23.15;17.15;;;;;;;9.41;100.00;100822.41;5055090;28;20028;-61
2022/05/04 00:03:27;;;;;;;22.52;16.42;;;;;;;9.40;100.00;100815.44;5073754;28;20028;-61
2022/05/04 00:05:53;;;;;;;29.08;17.10;;;;;;;9.34;100.00;100811.31;5073769;28;20078;-61
2022/05/04 00:08:18;;;;;;;22.02;17.35;;;;;;;9.26;100.00;100808.13;5073568;28;20028;-61
2022/05/04 00:10:44;;;;;;;22.52;16.80;;;;;;;9.19;100.00;100807.50;5073654;28;20062;-61
2022/05/04 00:13:09;;;;;;;22.63;16.63;;;;;;;9.11;100.00;100800.84;5056127;28;20032;-61
2022/05/04 00:15:36;;;;;;;24.88;16.75;;;;;;;9.15;100.00;100810.31;5073327;28;20039;-61
2022/05/04 00:18:01;;;;;;;24.60;17.05;;;;;;;8.94;100.00;100784.88;5073130;28;20360;-61
2022/05/04 00:20:26;;;;;;;25.25;17.15;;;;;;;9.03;100.00;100797.66;5072814;28;20036;-61
2022/05/04 00:22:52;;;;;;;30.63;16.45;;;;;;;9.05;100.00;100809.81;5073271;28;20032;-61
2022/05/04 00:25:17;;;;;;;28.67;17.02;;;;;;;9.06;100.00;100818.50;5069941;28;20387;-61
2022/05/04 00:27:43;;;;;;;22.95;14.98;;;;;;;9.01;100.00;100805.59;5027134;28;20854;-61
2022/05/04 00:30:08;;;;;;;25.23;14.65;;;;;;;8.98;100.00;100803.06;5026083;28;20086;-61
2022/05/04 00:32:34;;;;;;;18.98;14.70;;;;;;;8.81;100.00;100781.03;5026070;28;20121;-61
2022/05/04 00:34:59;;;;;;;27.33;16.05;;;;;;;9.05;100.00;100817.66;5026541;28;20920;-61
2022/05/04 00:37:24;;;;;;;19.55;14.80;;;;;;;9.01;100.00;100812.59;5025825;28;20037;-61
2022/05/04 00:39:50;;;;;;;20.48;15.73;;;;;;;8.95;100.00;100802.34;5026203;28;20021;-61
2022/05/04 00:42:19;;;;;;;22.55;14.25;;;;;;;8.82;100.00;100780.94;5026299;28;20184;-61
2022/05/04 00:44:46;;;;;;;15.13;13.40;;;;;;;9.02;100.00;100819.53;5026362;28;20051;-61
2022/05/04 00:47:12;;;;;;;19.10;12.75;;;;;;;9.01;100.00;100818.69;5027096;28;20036;-62
2022/05/04 00:49:39;;;;;;;16.38;13.38;;;;;;;8.88;100.00;100790.38;5026075;28;20950;-61
2022/05/04 00:52:05;;;;;;;16.58;13.70;;;;;;;9.02;100.00;100823.00;5038167;28;20104;-61
2022/05/04 00:54:31;;;;;;;20.25;14.82;;;;;;;8.48;100.00;100735.97;5072812;28;20448;-61
2022/05/04 00:56:57;;;;;;;17.17;12.65;;;;;;;8.97;100.00;100806.59;5055080;28;20028;-61
2022/05/04 00:59:22;;;;;;;18.17;12.13;;;;;;;8.99;100.00;100809.19;5073120;28;20107;-61
2022/05/04 01:01:48;;;;;;;15.07;11.43;;;;;;;9.01;100.00;100818.69;5072777;28;20032;-61
2022/05/04 01:04:14;;;;;;;22.10;12.20;;;;;;;8.79;100.00;100777.63;5072646;28;20031;-61
2022/05/04 01:06:39;;;;;;;14.68;12.15;;;;;;;9.00;100.00;100806.47;5073059;28;20029;-61
2022/05/04 01:09:05;;;;;;;17.58;12.75;;;;;;;9.04;100.00;100815.94;5052639;28;20021;-61
2022/05/04 01:11:30;;;;;;;12.82;11.32;;;;;;;9.02;100.00;100803.81;5025719;28;20032;-61
2022/05/04 01:14:08;;;;;;;15.13;9.90;;;;;;;9.05;100.00;100809.81;5026619;28;20071;-61
2022/05/04 01:16:36;;;;;;;14.05;9.23;;;;;;;9.02;100.00;100807.28;5056842;28;20042;-60
2022/05/04 01:19:01;;;;;;;15.88;9.27;;;;;;;9.06;100.00;100810.63;5072435;28;20028;-61
2022/05/04 01:21:27;;;;;;;14.55;8.52;;;;;;;9.07;100.00;100813.22;5073043;28;20481;-61
2022/05/04 01:23:53;;;;;;;13.85;9.23;;;;;;;9.06;100.00;100810.63;5073204;28;20032;-61
2022/05/04 01:26:19;;;;;;;10.02;7.72;;;;;;;9.06;100.00;100806.25;5073235;28;20427;-61
2022/05/04 01:28:45;;;;;;;15.75;8.27;;;;;;;9.08;100.00;100811.44;5072621;28;20067;-61
2022/05/04 01:31:11;;;;;;;13.80;8.07;;;;;;;9.04;100.00;100810.72;5072330;28;20028;-61
2022/05/04 01:33:36;;;;;;;17.17;8.15;;;;;;;9.02;100.00;100815.13;5072847;28;20467;-61
2022/05/04 01:36:02;;;;;;;11.20;7.60;;;;;;;8.81;100.00;100779.25;5072415;28;20025;-61
2022/05/04 01:38:28;;;;;;;15.95;7.90;;;;;;;9.02;100.00;100817.75;5076983;28;20035;-61
2022/05/04 01:40:53;;;;;;;11.30;7.30;;;;;;;8.95;100.00;100813.69;5046683;28;20040;-61
2022/05/04 01:43:19;;;;;;;13.27;7.50;;;;;;;8.98;100.00;100817.94;5045136;28;20070;-61
2022/05/04 01:45:44;;;;;;;9.95;6.45;;;;;;;8.95;100.00;100810.19;5045152;28;20618;-61
2022/05/04 01:48:10;;;;;;;15.88;7.57;;;;;;;8.94;100.00;100818.97;5027163;28;20958;-61
2022/05/04 01:50:35;;;;;;;15.13;7.22;;;;;;;8.84;100.00;100813.22;5046435;28;20024;-61
2022/05/04 01:53:01;;;;;;;13.00;7.20;;;;;;;8.82;100.00;100811.56;5045370;28;20908;-61
2022/05/04 01:55:27;;;;;;;14.20;6.55;;;;;;;8.83;100.00;100832.44;5045048;28;20063;-61
2022/05/04 01:57:52;;;;;;;14.20;5.97;;;;;;;8.80;100.00;100829.94;5046442;28;20135;-61
2022/05/04 02:00:18;;;;;;;11.32;6.75;;;;;;;8.78;100.00;100820.44;5045963;28;20024;-61
2022/05/04 02:02:44;;;;;;;7.60;5.22;;;;;;;8.70;100.00;100810.22;5045461;28;20047;-62
2022/05/04 02:05:09;;;;;;;8.00;4.97;;;;;;;8.73;100.00;100815.34;5045028;28;20049;-61
2022/05/04 02:07:35;;;;;;;12.32;5.45;;;;;;;8.75;100.00;100817.94;5026930;28;20935;-62
2022/05/04 02:10:02;;;;;;;11.43;5.22;;;;;;;8.72;100.00;100811.88;5027047;28;20786;-61
2022/05/04 02:12:28;;;;;;;9.68;5.60;;;;;;;8.65;100.00;100809.56;5044959;28;20031;-61
2022/05/04 02:14:53;;;;;;;10.25;5.78;;;;;;;8.71;100.00;100825.03;5045061;28;20024;-61
2022/05/04 02:17:19;;;;;;;8.85;5.30;;;;;;;8.66;100.00;100811.25;5044685;28;20085;-61
2022/05/04 02:19:44;;;;;;;7.30;5.03;;;;;;;8.66;100.00;100806.00;5044863;28;20792;-61
2022/05/04 02:22:09;;;;;;;11.27;5.22;;;;;;;8.48;100.00;100780.47;5046425;28;20734;-61
2022/05/04 02:24:35;;;;;;;10.32;4.72;;;;;;;8.64;100.00;100813.94;5027265;28;20028;-61
2022/05/04 02:27:00;;;;;;;7.28;4.80;;;;;;;8.58;100.00;100802.81;5046932;28;20032;-61
2022/05/04 02:29:26;;;;;;;10.25;5.70;;;;;;;8.48;100.00;100806.66;5045581;28;20083;-62
2022/05/04 02:31:51;;;;;;;13.02;4.85;;;;;;;8.42;100.00;100801.63;5087651;28;20020;-61
2022/05/04 02:34:16;;;;;;;15.68;5.70;;;;;;;8.16;100.00;100779.78;5091809;28;20028;-62
2022/05/04 02:39:26;;;;;;;12.52;5.25;;;;;;;8.10;100.00;100777.41;5045518;28;20066;-61
2022/05/04 02:41:52;;;;;;;14.65;5.68;;;;;;;8.27;100.00;100797.75;5047301;28;20147;-61
2022/05/04 02:44:18;;;;;;;9.13;4.80;;;;;;;8.11;100.00;100778.25;5048259;28;20931;-61
2022/05/04 02:46:43;;;;;;;9.30;4.03;;;;;;;8.32;100.00;100823.78;5050208;28;20039;-61
2022/05/04 02:49:09;;;;;;;7.95;4.95;;;;;;;8.23;100.00;100807.47;5050670;28;20027;-61
2022/05/04 02:51:34;;;;;;;8.48;5.40;;;;;;;8.14;100.00;100799.91;5052265;28;20028;-61
2022/05/04 02:53:59;;;;;;;10.00;5.28;;;;;;;8.09;100.00;100803.59;5095531;28;20035;-61
2022/05/04 02:56:25;;;;;;;10.98;5.47;;;;;;;7.82;100.00;100784.44;5095884;28;20028;-61
2022/05/04 02:58:51;;;;;;;10.35;5.20;;;;;;;7.92;100.00;100811.16;5057275;28;20076;-61
2022/05/04 03:04:04;;;;;;;11.80;6.70;;;;;;;7.77;100.00;100802.06;5049107;28;20047;-61
2022/05/04 03:06:30;;;;;;;10.63;5.50;;;;;;;7.27;100.00;100726.97;5048915;28;20028;-61
2022/05/04 03:08:55;;;;;;;8.30;5.28;;;;;;;7.65;100.00;100805.06;5048491;28;20024;-61
2022/05/04 03:14:07;;;;;;;14.40;5.85;;;;;;;7.49;100.00;100806.44;5047923;28;20050;-61
2022/05/04 03:16:33;;;;;;;13.50;6.38;;;;;;;7.35;100.00;100808.63;5046966;28;20020;-61
2022/05/04 03:18:59;;;;;;;10.25;5.60;;;;;;;7.20;100.00;100805.56;5038625;28;20917;-61
2022/05/04 03:21:24;;;;;;;9.35;5.68;;;;;;;7.08;100.00;100805.06;5052503;28;20024;-61
2022/05/04 03:23:49;;;;;;;10.25;5.75;;;;;;;6.99;100.00;100811.44;5095050;28;20554;-61
2022/05/04 03:26:15;;;;;;;10.50;5.68;;;;;;;6.91;100.00;100808.19;5086932;28;20020;-61
2022/05/04 03:28:40;;;;;;;10.02;6.35;;;;;;;6.78;100.00;100806.81;5049876;28;20031;-61
2022/05/04 03:31:05;;;;;;;10.25;5.93;;;;;;;6.57;100.00;100783.91;5049087;28;20032;-61
2022/05/04 03:33:31;;;;;;;12.57;5.63;;;;;;;6.50;100.00;100790.19;5065665;28;20543;-61
2022/05/04 03:35:56;;;;;;;13.27;6.22;;;;;;;6.43;100.00;100799.06;5050436;28;20038;-62
2022/05/04 03:38:22;;;;;;;10.27;6.18;;;;;;;6.18;100.00;100769.31;5049261;28;20028;-62
2022/05/04 03:40:47;;;;;;;15.13;7.55;;;;;;;6.29;100.00;100790.75;5048961;28;20885;-62
2022/05/04 03:43:12;;;;;;;10.35;6.00;;;;;;;6.31;100.00;100800.28;5048918;28;20036;-62
2022/05/04 03:45:38;;;;;;;11.73;7.45;;;;;;;6.15;100.00;100789.38;5047183;28;20797;-62
2022/05/04 03:48:03;;;;;;;11.63;7.57;;;;;;;6.18;100.00;100803.25;5046903;28;20024;-62
2022/05/04 03:50:28;;;;;;;12.40;6.53;;;;;;;6.11;100.00;100799.94;5046757;28;20020;-62
2022/05/04 03:52:54;;;;;;;18.60;6.88;;;;;;;5.90;100.00;100770.03;5046726;28;20764;-62
2022/05/04 03:55:19;;;;;;;12.90;7.32;;;;;;;5.98;100.00;100799.38;5049332;28;20093;-62
2022/05/04 03:57:44;;;;;;;13.93;7.18;;;;;;;5.91;100.00;100800.44;5048770;28;20036;-62
2022/05/04 04:00:10;;;;;;;12.95;6.97;;;;;;;5.80;100.00;100796.34;5050037;28;20035;-62
2022/05/04 04:02:36;;;;;;;10.40;6.70;;;;;;;5.73;100.00;100789.56;5047168;28;20028;-62
2022/05/04 04:05:02;;;;;;;10.52;6.63;;;;;;;5.69;100.00;100788.78;5047739;28;20920;-62
2022/05/04 04:07:27;;;;;;;14.13;6.95;;;;;;;5.62;100.00;100776.78;5062559;28;20038;-62
2022/05/04 04:09:53;;;;;;;9.60;6.38;;;;;;;5.71;100.00;100807.84;5048893;28;20090;-62
2022/05/04 04:12:18;;;;;;;11.95;7.75;;;;;;;5.59;100.00;100797.69;5047581;28;20852;-62
2022/05/04 04:14:43;;;;;;;10.85;6.88;;;;;;;5.46;100.00;100791.91;5053183;28;20039;-63
2022/05/04 04:17:09;;;;;;;17.13;7.63;;;;;;;5.48;100.00;100797.09;5047213;28;20028;-62
2022/05/04 04:19:34;;;;;;;10.43;6.78;;;;;;;5.49;100.00;100806.63;5048484;28;20127;-61
2022/05/04 04:21:59;;;;;;;9.98;6.55;;;;;;;5.43;100.00;100796.34;5046737;28;20938;-62
2022/05/04 04:24:25;;;;;;;11.80;7.45;;;;;;;5.47;100.00;100793.66;5046707;28;20034;-61
2022/05/04 04:26:50;;;;;;;9.55;6.47;;;;;;;5.60;100.00;100802.91;5047418;28;20039;-62
2022/05/04 04:29:16;;;;;;;17.23;8.15;;;;;;;5.64;100.00;100795.84;5047688;28;20036;-62
2022/05/04 04:31:42;;;;;;;14.18;7.82;;;;;;;5.63;100.00;100794.13;5093802;28;20176;-61
2022/05/04 04:34:07;;;;;;;12.98;6.63;;;;;;;5.76;100.00;100808.59;5093943;28;20119;-61
2022/05/04 04:36:33;;;;;;;12.13;7.43;;;;;;;5.78;100.00;100798.13;5093894;28;20024;-62
2022/05/04 04:38:58;;;;;;;11.50;7.70;;;;;;;5.90;100.00;100809.16;5094153;28;20024;-62
2022/05/04 04:41:24;;;;;;;12.88;8.20;;;;;;;5.95;100.00;100802.06;5073248;28;20943;-62
2022/05/04 04:43:49;;;;;;;11.60;7.03;;;;;;;6.05;100.00;100803.53;5030454;28;20789;-62
2022/05/04 04:46:14;;;;;;;13.40;7.57;;;;;;;6.18;100.00;100805.84;5047349;28;20067;-62
2022/05/04 04:48:40;;;;;;;14.57;7.35;;;;;;;6.30;100.00;100809.00;5046984;28;21069;-62
2022/05/04 04:51:05;;;;;;;13.93;7.38;;;;;;;6.40;100.00;100809.59;5046536;28;20039;-62
2022/05/04 04:53:31;;;;;;;13.68;8.90;;;;;;;6.43;100.00;100804.28;5047279;28;20055;-62
2022/05/04 04:55:57;;;;;;;12.65;7.38;;;;;;;6.60;100.00;100815.13;5054465;28;20073;-62
2022/05/04 04:58:22;;;;;;;14.55;7.43;;;;;;;6.49;100.00;100783.28;5093303;28;20032;-62
2022/05/04 05:00:48;;;;;;;11.52;7.15;;;;;;;6.77;100.00;100818.16;5093379;28;20019;-62
2022/05/04 05:03:13;;;;;;;15.35;6.40;;;;;;;6.88;100.00;100818.72;5093325;28;20028;-62
2022/05/04 05:05:42;;;;;;;13.27;6.80;;;;;;;6.99;100.00;100827.09;5092413;28;20060;-62
2022/05/04 05:08:08;;;;;;;14.10;8.07;;;;;;;7.11;100.00;100824.13;5093488;28;20077;-62
2022/05/04 05:10:35;;;;;;;10.80;6.85;;;;;;;7.20;100.00;100821.22;5093218;28;20020;-62
2022/05/04 05:13:00;;;;;;;13.93;7.50;;;;;;;7.35;100.00;100824.28;5083952;28;20031;-62
2022/05/04 05:18:10;;;;;;;14.87;7.53;;;;;;;7.46;100.00;100812.63;5093417;28;20043;-62
2022/05/04 05:20:35;;;;;;;11.25;6.30;;;;;;;7.61;100.00;100833.06;5081649;28;20036;-62
2022/05/04 05:23:01;;;;;;;11.48;6.40;;;;;;;7.64;100.00;100826.88;5092448;28;20039;-62
2022/05/04 05:25:28;;;;;;;10.07;5.97;;;;;;;7.79;100.00;100833.38;5093372;28;20027;-62
2022/05/04 05:27:55;;;;;;;19.65;6.50;;;;;;;7.86;100.00;100822.69;5093059;28;20120;-62
2022/05/04 05:30:20;;;;;;;10.07;6.05;;;;;;;7.96;100.00;100829.31;5093119;28;20024;-62
2022/05/04 05:32:46;;;;;;;10.50;6.13;;;;;;;8.01;100.00;100824.78;5092767;28;20111;-62
2022/05/04 05:35:11;;;;;;;9.73;6.03;;;;;;;8.09;100.00;100819.31;5080144;28;20107;-62
2022/05/04 05:37:37;;;;;;;9.15;6.13;;;;;;;8.09;100.00;100809.69;5092849;28;20467;-62
2022/05/04 05:40:03;;;;;;;11.90;7.10;;;;;;;8.17;100.00;100819.91;5093119;28;20474;-62
2022/05/04 05:42:28;;;;;;;10.00;6.35;;;;;;;8.18;100.00;100819.00;5092466;28;20028;-62
2022/05/04 05:44:54;;;;;;;17.27;7.18;;;;;;;8.27;100.00;100828.31;5092916;28;20020;-62
2022/05/04 05:47:20;;;;;;;17.30;6.13;;;;;;;8.29;100.00;100831.75;5092705;28;20197;-62
2022/05/04 05:49:45;;;;;;;14.88;7.22;;;;;;;8.35;100.00;100831.56;5092939;28;20024;-62
2022/05/04 05:52:10;;;;;;;15.38;6.75;;;;;;;8.42;100.00;100841.75;5092070;28;20422;-62
2022/05/04 05:54:36;;;;;;;9.70;5.70;;;;;;;8.48;100.00;100827.63;5092529;28;20119;-62
2022/05/04 05:57:01;;;;;;;14.30;7.65;;;;;;;8.59;100.00;100835.94;5092752;28;20025;-62
2022/05/04 05:59:27;;;;;;;11.43;6.53;;;;;;;8.73;100.00;100842.41;5092671;28;20073;-62
2022/05/04 06:01:52;;;;;;;11.27;6.97;;;;;;;8.79;100.00;100836.09;5092597;28;20115;-62
2022/05/04 06:04:17;;;;;;;15.27;7.85;;;;;;;8.88;100.00;100838.41;5092615;28;20513;-62
2022/05/04 06:06:43;;;;;;;15.18;7.40;;;;;;;8.82;100.00;100830.72;5092583;28;20036;-62
2022/05/04 06:09:08;;;;;;;30.65;7.57;;;;;;;8.76;100.00;100815.25;5089376;28;20382;-62
2022/05/04 06:11:34;;;;;;;15.93;6.60;;;;;;;8.85;100.00;100841.13;5063832;28;20040;-62
2022/05/04 06:14:00;;;;;;;11.05;6.60;;;;;;;8.76;100.00;100838.81;5065269;28;20815;-62
2022/05/04 06:16:25;;;;;;;15.10;6.80;;;;;;;8.71;100.00;100825.03;5066922;28;20024;-63
2022/05/04 06:18:51;;;;;;;9.32;6.43;;;;;;;8.74;100.00;100830.16;5070065;28;20023;-62
2022/05/04 06:21:16;;;;;;;11.77;7.70;;;;;;;8.71;100.00;100825.91;5061172;28;20027;-63
2022/05/04 06:23:41;;;;;;;21.63;6.95;;;;;;;8.85;100.00;100843.75;5070228;28;20024;-62
2022/05/04 06:26:07;;;;;;;9.82;6.82;;;;;;;8.83;100.00;100839.44;5068683;28;20039;-62
2022/05/04 06:28:32;;;;;;;9.93;6.53;;;;;;;8.73;100.00;100828.44;5066060;28;20135;-62
2022/05/04 06:36:25;;;;;;;11.05;6.88;;;;;;;8.83;100.00;100842.94;5069266;28;20888;-62
2022/05/04 06:38:51;;;;;;;12.32;5.75;;;;;;;8.85;100.00;100833.28;5073572;28;20028;-62
2022/05/04 06:41:18;;;;;;;14.65;7.00;;;;;;;8.73;100.00;100812.72;5072470;28;20036;-62
2022/05/04 06:43:43;;;;;;;11.20;7.00;;;;;;;8.96;100.00;100836.34;5074762;28;20028;-63
2022/05/04 06:46:08;;;;;;;12.98;6.78;;;;;;;9.00;100.00;100843.19;5072162;28;20036;-62
2022/05/04 06:48:34;;;;;;;11.35;6.80;;;;;;;9.04;100.00;100849.16;5065191;28;20090;-62
2022/05/04 06:51:00;;;;;;;14.02;7.72;;;;;;;9.04;100.00;100841.31;5060002;28;20028;-62
2022/05/04 06:53:25;;;;;;;15.20;7.15;;;;;;;9.05;100.00;100843.88;5059941;28;20135;-61
2022/05/04 06:55:51;;;;;;;17.52;6.65;;;;;;;9.07;100.00;100836.81;5069012;28;20958;-62
2022/05/04 06:58:16;;;;;;;9.32;6.25;;;;;;;9.08;100.00;100829.81;5058343;28;20250;-62
2022/05/04 07:00:41;;;;;;;10.07;7.15;;;;;;;8.99;100.00;100815.25;5057788;28;20106;-62
2022/05/04 07:03:07;;;;;;;15.60;6.85;;;;;;;9.11;100.00;100834.91;5059383;28;20876;-62
2022/05/04 07:05:32;;;;;;;11.98;7.45;;;;;;;9.12;100.00;100827.00;5060013;28;20028;-62
2022/05/04 07:07:58;;;;;;;46.45;10.65;;;;;;;9.24;100.00;100839.66;5058473;28;20040;-62
2022/05/04 07:10:23;;;;;;;14.07;7.38;;;;;;;9.35;100.00;100839.25;5053398;28;20517;-62
2022/05/04 07:12:50;;;;;;;12.07;7.45;;;;;;;9.41;100.00;100832.91;5050850;28;20164;-62
2022/05/04 07:15:15;;;;;;;13.05;7.00;;;;;;;9.44;100.00;100827.53;5050166;28;20035;-62
2022/05/04 07:17:41;;;;;;;23.63;7.93;;;;;;;9.46;100.00;100833.59;5050817;28;20135;-62
2022/05/04 07:20:08;;;;;;;11.65;6.65;;;;;;;9.49;100.00;100833.47;5050675;28;21011;-62
2022/05/04 07:22:33;;;;;;;12.98;7.65;;;;;;;9.60;100.00;100850.50;5031956;28;20976;-62
2022/05/04 07:24:59;;;;;;;12.18;7.63;;;;;;;9.59;100.00;100840.06;5049133;28;20039;-62
2022/05/04 07:27:24;;;;;;;17.98;7.60;;;;;;;9.71;100.00;100836.97;5046238;28;20096;-62
2022/05/04 07:29:50;;;;;;;17.05;6.90;;;;;;;9.77;100.00;100836.72;5048496;28;20802;-62
2022/05/04 07:32:15;;;;;;;11.77;7.63;;;;;;;9.70;100.00;100814.25;5050355;28;20140;-62
2022/05/04 07:34:41;;;;;;;16.73;7.53;;;;;;;9.93;100.00;100858.81;5031956;28;20039;-62
2022/05/04 07:37:06;;;;;;;15.10;7.28;;;;;;;9.97;100.00;100849.88;5049805;28;21380;-62
2022/05/04 07:42:26;;;;;;;10.32;6.22;;;;;;;10.12;100.00;100859.78;5048804;28;20129;-62
2022/05/04 07:45:03;;;;;;;15.60;7.70;;;;;;;10.15;100.00;100859.69;5048018;28;20032;-62
2022/05/04 07:47:30;;;;;;;9.82;6.47;;;;;;;10.09;100.00;100844.16;5048894;28;20021;-62
2022/05/04 07:49:56;;;;;;;13.57;6.85;;;;;;;10.13;100.00;100848.38;5048099;28;20028;-62
2022/05/04 07:52:22;;;;;;;22.27;7.78;;;;;;;10.23;100.00;100844.47;5030603;28;20067;-62
2022/05/04 07:54:48;;;;;;;12.77;6.53;;;;;;;10.34;100.00;100848.44;5048617;28;20137;-62
2022/05/04 07:57:14;;;;;;;7.82;6.07;;;;;;;10.40;100.00;100850.78;5030055;28;20893;-62
2022/05/04 07:59:39;;;;;;;13.80;8.48;;;;;;;10.38;100.00;100842.09;5048644;28;20020;-63
2022/05/04 08:04:49;;;;;;;13.47;6.67;;;;;;;10.59;100.00;100859.59;5033415;28;20249;-62
2022/05/04 08:07:16;;;;;;;15.10;7.28;;;;;;;10.67;100.00;100854.88;5047033;28;20028;-62
2022/05/04 08:09:41;;;;;;;14.82;7.70;;;;;;;10.68;100.00;100832.91;5046392;28;20134;-62
2022/05/04 08:12:08;;;;;;;14.02;7.25;;;;;;;10.90;100.00;100859.97;5046189;28;20848;-62
2022/05/04 08:14:34;;;;;;;20.45;9.57;;;;;;;10.52;100.00;100772.28;5046348;28;20024;-61
2022/05/04 08:17:00;;;;;;;12.85;7.82;;;;;;;10.93;100.00;100833.53;5046926;28;20024;-62
2022/05/04 08:19:25;;;;;;;10.23;7.18;;;;;;;11.14;100.00;100848.38;5045659;28;20024;-62
2022/05/04 08:21:51;;;;;;;16.40;8.10;;;;;;;11.21;100.00;100860.31;5046243;28;20073;-62
2022/05/04 08:24:17;;;;;;;15.85;8.02;;;;;;;11.09;100.00;100836.34;5045461;28;20094;-62
2022/05/04 08:26:42;;;;;;;14.55;7.22;;;;;;;11.23;100.00;100847.94;5045813;28;20882;-62
2022/05/04 08:29:08;;;;;;;22.33;7.38;;;;;;;11.44;100.00;100858.41;5046078;28;20036;-62
2022/05/04 08:31:34;;;;;;;16.15;7.97;;;;;;;11.60;100.00;100854.97;5045664;28;20873;-62
2022/05/04 08:34:00;;;;;;;13.40;8.13;;;;;;;11.69;100.00;100845.81;5046152;28;20032;-62
2022/05/04 08:36:27;;;;;;;13.80;7.97;;;;;;;11.82;100.00;100852.22;5045337;28;20087;-62
2022/05/04 08:38:52;;;;;;;13.40;7.72;;;;;;;11.95;100.00;100853.34;5045428;28;20899;-62
2022/05/04 08:41:18;;;;;;;18.15;8.63;;;;;;;12.01;100.00;100853.03;5045496;28;20151;-62
2022/05/04 08:43:44;;;;;;;13.88;8.70;;;;;;;11.97;100.00;100832.19;5045331;28;20982;-62
2022/05/04 08:46:13;;;;;;;17.70;8.63;;;;;;;12.11;100.00;100849.03;5047245;28;20084;-62
2022/05/04 08:48:39;;;;;;;13.45;9.32;;;;;;;12.21;100.00;100838.88;5046016;28;20081;-62
2022/05/04 08:51:05;;;;;;;13.25;8.65;;;;;;;12.21;100.00;100845.00;5047247;28;20060;-62
2022/05/04 08:53:31;;;;;;;22.15;9.38;;;;;;;12.27;100.00;100847.31;5027669;28;20027;-62
2022/05/04 08:55:57;;;;;;;14.43;7.63;;;;;;;12.40;100.00;100849.38;5046151;28;20142;-62
2022/05/04 08:58:22;;;;;;;16.13;9.05;;;;;;;12.42;100.00;100839.59;5046870;28;20032;-62
2022/05/04 09:00:47;;;;;;;29.35;8.32;;;;;;;12.65;100.00;100844.53;5047690;28;20038;-62
2022/05/04 09:03:13;;;;;;;12.00;7.97;;;;;;;12.93;100.00;100850.09;5057211;28;20039;-61
2022/05/04 09:05:40;;;;;;;14.93;8.30;;;;;;;13.11;100.00;100843.84;5091993;28;20836;-62
2022/05/04 09:08:07;;;;;;;10.25;7.47;;;;;;;13.25;100.00;100845.75;5092485;28;20059;-62
2022/05/04 09:10:39;;;;;;;24.50;9.95;;;;;;;13.29;100.00;100834.97;5090403;28;20523;-62
2022/05/04 09:13:05;;;;;;;10.80;7.35;;;;;;;13.19;100.00;100820.56;5081298;28;20040;-62
2022/05/04 09:15:32;;;;;;;14.38;7.25;;;;;;;13.49;100.00;100840.91;5073631;28;20024;-62
2022/05/04 09:18:02;;;;;;;12.55;7.25;;;;;;;13.58;100.00;100827.22;5072320;28;20115;-62
2022/05/04 09:20:48;;;;;;;21.98;8.32;;;;;;;13.76;100.00;100844.69;5071831;28;20387;-63
2022/05/04 09:23:24;;;;;;;11.05;6.43;;;;;;;13.73;100.00;100842.22;5072535;28;20458;-62
2022/05/04 09:25:53;;;;;;;13.65;8.10;;;;;;;13.59;100.00;100823.63;5075156;28;20383;-62
2022/05/04 09:28:20;;;;;;;15.45;8.57;;;;;;;13.51;100.00;100831.16;5085065;28;20048;-62
2022/05/04 09:30:48;;;;;;;12.70;7.57;;;;;;;13.27;100.00;100825.44;5092063;28;20117;-64
2022/05/04 09:33:20;;;;;;;10.70;6.82;;;;;;;13.23;100.00;100829.16;5091964;28;20024;-63
2022/05/04 09:35:45;;;;;;;12.70;7.97;;;;;;;13.35;100.00;100830.28;5092017;28;20024;-62
2022/05/04 09:46:39;;;;;;;10.27;7.15;;;;;;;13.78;100.00;100816.41;5025691;28;20040;-62
2022/05/04 09:49:13;;;;;;;15.48;6.85;;;;;;;13.90;100.00;100828.91;5024961;28;20916;-62
2022/05/04 09:51:40;;;;;;;9.35;6.80;;;;;;;13.87;100.00;100831.72;5027045;28;20043;-62
2022/05/04 09:54:23;;;;;;;14.60;7.32;;;;;;;13.49;100.00;100790.75;5031868;28;20090;-62
2022/05/04 09:56:52;;;;;;;11.63;6.10;;;;;;;13.74;100.00;100817.50;5048376;28;20025;-62
2022/05/04 09:59:20;;;;;;;11.85;7.25;;;;;;;13.79;100.00;100820.72;5031687;28;20542;-63
2022/05/04 10:01:46;;;;;;;10.55;6.05;;;;;;;13.98;100.00;100823.19;5047236;28;20027;-62
2022/05/04 10:04:11;;;;;;;13.45;7.10;;;;;;;14.17;100.00;100821.19;5032949;28;20029;-62
2022/05/04 10:06:38;;;;;;;14.88;6.50;;;;;;;13.78;100.00;100745.09;5032248;28;20028;-63
2022/05/04 10:09:04;;;;;;;13.88;8.05;;;;;;;14.24;100.00;100810.16;5032501;28;20024;-62
2022/05/04 10:11:32;;;;;;;11.43;6.28;;;;;;;14.26;100.00;100818.03;5031656;28;20024;-63
2022/05/04 10:14:02;;;;;;;9.23;6.20;;;;;;;14.33;94.61;100800.81;5032926;28;20039;-63
2022/05/04 10:16:30;;;;;;;9.45;6.20;;;;;;;14.30;85.75;100790.44;5031901;28;20036;-62
2022/05/04 10:18:57;;;;;;;12.95;6.57;;;;;;;14.44;91.96;100810.81;5031564;28;20104;-62
2022/05/04 10:21:24;;;;;;;12.73;7.53;;;;;;;14.40;89.38;100804.03;5015363;28;20028;-63
2022/05/04 10:23:54;;;;;;;10.02;6.55;;;;;;;14.61;94.42;100813.28;5033157;28;20934;-63
2022/05/04 10:26:33;;;;;;;18.92;5.85;;;;;;;14.83;88.70;100816.34;5031288;28;20054;-63
2022/05/04 10:31:53;;;;;;;10.27;5.40;;;;;;;14.91;80.75;100813.22;5034785;28;20038;-62
2022/05/04 10:34:19;;;;;;;8.27;5.72;;;;;;;14.94;84.80;100799.81;5033769;28;20357;-62
2022/05/04 10:36:52;;;;;;;8.55;5.35;;;;;;;15.19;85.46;100808.78;5048676;28;20044;-63
2022/05/04 10:39:24;;;;;;;11.27;5.63;;;;;;;15.36;80.97;100810.38;5033127;28;20067;-62
2022/05/04 10:41:50;;;;;;;10.98;6.00;;;;;;;15.25;75.82;100818.97;5031996;28;20033;-62
2022/05/04 10:44:18;;;;;;;11.10;5.63;;;;;;;15.15;77.26;100783.44;5030710;28;20790;-60
2022/05/04 10:46:49;;;;;;;12.40;5.85;;;;;;;15.46;81.00;100805.34;5047564;28;20044;-63
2022/05/04 10:49:17;;;;;;;17.13;6.28;;;;;;;15.70;84.89;100806.44;5030637;28;20024;-63
2022/05/04 10:51:49;;;;;;;13.02;5.97;;;;;;;15.81;80.46;100785.41;5032450;28;20037;-62
2022/05/04 10:54:21;;;;;;;12.15;6.13;;;;;;;16.04;78.14;100808.59;5030888;28;20063;-62
2022/05/04 10:56:51;;;;;;;14.23;5.10;;;;;;;16.22;80.32;100796.75;5031798;28;20056;-62
2022/05/04 10:59:26;;;;;;;9.93;5.13;;;;;;;16.48;77.19;100802.97;5032454;28;20028;-62
2022/05/04 11:01:56;;;;;;;12.07;6.03;;;;;;;16.72;78.17;100779.22;5032946;28;20123;-62
2022/05/04 11:04:23;;;;;;;12.57;6.97;;;;;;;17.13;79.39;100790.44;5027112;28;20135;-62
2022/05/04 11:07:00;;;;;;;12.30;5.75;;;;;;;17.41;76.83;100789.28;5010644;28;20064;-61
2022/05/04 11:09:31;;;;;;;12.70;7.63;;;;;;;17.07;73.95;100759.00;5028747;28;20028;-61
2022/05/04 11:11:59;;;;;;;10.80;6.18;;;;;;;16.90;73.07;100787.72;5027766;28;20028;-61
2022/05/04 11:14:25;;;;;;;11.90;6.68;;;;;;;16.70;73.46;100791.72;5027454;28;20033;-61
2022/05/04 11:16:52;;;;;;;11.90;6.45;;;;;;;16.73;76.96;100784.41;5027519;28;20115;-61
2022/05/04 11:19:18;;;;;;;11.00;5.82;;;;;;;16.90;71.77;100788.53;5027555;28;20929;-62
2022/05/04 11:21:44;;;;;;;8.45;5.97;;;;;;;16.77;70.42;100793.00;5010270;28;20097;-61
2022/05/04 11:24:11;;;;;;;14.95;7.72;;;;;;;16.53;69.87;100778.75;5027267;28;20029;-61
2022/05/04 11:26:40;;;;;;;8.88;6.00;;;;;;;16.81;71.12;100789.19;5027093;28;20025;-61
2022/05/04 11:29:11;;;;;;;11.85;5.32;;;;;;;16.99;64.03;100793.22;5027349;28;20028;-61
2022/05/04 11:31:37;;;;;;;10.27;5.55;;;;;;;17.03;68.09;100777.94;5029742;28;20034;-62
2022/05/04 11:34:03;;;;;;;8.80;4.75;;;;;;;17.63;71.73;100783.31;5027235;28;20307;-62
2022/05/04 11:36:28;;;;;;;7.85;4.90;;;;;;;18.39;72.62;100765.13;5027040;28;20032;-62
2022/05/04 11:38:54;;;;;;;9.57;5.57;;;;;;;21.01;66.79;100763.91;5027843;28;20867;-62
2022/05/04 11:41:20;;;;;;;9.48;4.88;;;;;;;25.25;56.97;100776.22;5028509;28;20040;-61
2022/05/04 11:43:49;;;;;;;9.68;5.65;;;;;;;26.69;48.17;100763.13;5010540;28;20109;-61
2022/05/04 11:46:15;;;;;;;9.25;6.13;;;;;;;28.42;43.92;100768.97;5042905;28;20032;-61